Local and Regional Airport Weather



KPVE - Beech River Regional Airport
Distance from station: NW 4mi, 6km
Updated: Wed, Oct-16-2019 11:55am CDT
Clear
Clear
 Wind from N
Wind: N 10 mph , 17 km/h, Gust: 20 mph , 31 km/h
Temperature: 57°F , 14°C
Dew Point: 39°F , 4°C
Humidity: 51%
Barometer: 30.04 inHg , 1017.3 hPa
Clouds: Clear
Visibility: 10 miles , 16 km
2019/10/16 16:55 KPVE 161655Z AUTO 36009G17KT 330V040 10SM CLR 14/04 A3004 RMK A01
KSNH - Savannah Hardin Co. Airport
Distance from station: S 34mi, 54km
Updated: Wed, Oct-16-2019 12:15pm CDT
Clear
Clear
 Wind from varies
Wind: varies 6 mph , 9 km/h, Gust: 17 mph , 28 km/h
Temperature: 61°F , 16°C
Dew Point: 41°F , 5°C
Humidity: 48%
Barometer: 30.04 inHg , 1017.3 hPa
Clouds: Clear
Visibility: 10 miles , 16 km
2019/10/16 17:15 KSNH 161715Z AUTO VRB05G15KT 10SM CLR 16/05 A3004 RMK A01
 
KMKL - McKellar-Sipes Regional Airport
Distance from station: W 44mi, 72km
Updated: Wed, Oct-16-2019 11:53am CDT
Clear
Clear
 Wind from NNW
Wind: NNW 9 mph , 15 km/h
Temperature: 57°F , 14°C
Dew Point: 43°F , 6°C
Humidity: 59%
Barometer: 30.08 inHg , 1018.6 hPa
Clouds: Clear
Visibility: 10 miles , 16 km
2019/10/16 16:53 KMKL 161653Z 34008KT 10SM CLR 14/06 A3008 RMK AO2 SLP184 T01440056 $
KMSL - NW Alabama Regional Airport
Distance from station: SE 78mi, 126km
Updated: Wed, Oct-16-2019 11:53am CDT
Clear
Clear
 Wind from NNW
Wind: NNW 9 mph , 15 km/h
Temperature: 63°F , 17°C
Dew Point: 45°F , 7°C
Humidity: 52%
Barometer: 30.01 inHg , 1016.3 hPa
Clouds: Clear
Visibility: 10 miles , 16 km
2019/10/16 16:53 KMSL 161653Z AUTO 34008KT 10SM CLR 17/07 A3001 RMK AO2 SLP159 T01720072 $
 
KBNA - Nashville International Airport
Distance from station: NE 97mi, 157km
Updated: Wed, Oct-16-2019 11:53am CDT
Few Clouds
Few Clouds
 Wind from N
Wind: N 12 mph , 19 km/h
Temperature: 59°F , 15°C
Dew Point: 39°F , 4°C
Humidity: 48%
Barometer: 30.02 inHg , 1016.6 hPa
Clouds: Few Clouds
Visibility: 10 miles , 16 km
Cloud details: Few Clouds 2900 ft
Few Clouds 20000 ft
2019/10/16 16:53 KBNA 161653Z 35010KT 10SM R02L/2600VP6000FT FEW029 FEW200 15/04 A3002 RMK AO2 SLP161 T01500039
KMEM - Memphis International Airport
Distance from station: W 108mi, 173km
Updated: Wed, Oct-16-2019 11:54am CDT
Few Clouds
Few Clouds
 Wind from NNW
Wind: NNW 7 mph , 11 km/h
Temperature: 59°F , 15°C
Dew Point: 41°F , 5°C
Humidity: 51%
Barometer: 30.10 inHg , 1019.3 hPa
Clouds: Few Clouds
Visibility: 10 miles , 16 km
Cloud details: Few Clouds 25000 ft
2019/10/16 16:54 KMEM 161654Z 33006KT 10SM FEW250 15/05 A3010 RMK AO2 SLP192 T01500050
 
KTYS - Knoxville McGhee Tyson Airport
Distance from station: E 234mi, 377km
Updated: Wed, Oct-16-2019 11:53am CDT
Mostly cloudy
Mostly cloudy
 Wind from N
Wind: N 5 mph , 7 km/h
Temperature: 57°F , 14°C
Dew Point: 48°F , 9°C
Humidity: 72%
Barometer: 29.89 inHg , 1012.2 hPa
Clouds: Mostly cloudy
Visibility: 10 miles , 16 km
Cloud details: Mostly cloudy 2500 ft
Mostly cloudy 3500 ft
2019/10/16 16:53 KTYS 161653Z 35004KT 10SM BKN025 BKN035 14/09 A2989 RMK AO2 SLP114 T01440094
KSTL - St. Louis International Airport
Distance from station: NW 247mi, 398km
Updated: Wed, Oct-16-2019 12:01pm CDT
Overcast
Overcast
 Wind from NW
Wind: NW 14 mph , 22 km/h, Gust: 23 mph , 37 km/h
Temperature: 50°F , 10°C
Wind Chill: 45°F , 7°C
Dew Point: 36°F , 2°C
Humidity: 58%
Barometer: 30.11 inHg , 1019.6 hPa
Clouds: Overcast
Visibility: 10 miles , 16 km
Cloud details: Overcast 3000 ft
2019/10/16 17:01 KSTL 161701Z 32012G20KT 10SM OVC030 10/02 A3011 RMK AO2 T01000022

Refresh Page for latest data.